Time;durP1;ratioP1;P1;durP2;ratioP2;P2;SDS_P1;SDS_P2;PMS_P1;PMS_P2;Temp;Humidity;BMP_temperature;BMP_pressure;BME280_temperature;BME280_humidity;BME280_pressure;Samples;Min_cycle;Max_cycle;Signal;HPM_P1;HPM_P2
2024/03/18 00:00:56;;;;;;;8.60;3.97;;;;;;;11.35;100.00;101432.25;5061787;28;20129;-67
2024/03/18 00:03:43;;;;;;;7.53;4.10;;;;;;;11.36;100.00;101431.19;5100553;28;20502;-67
2024/03/18 00:06:30;;;;;;;9.02;4.63;;;;;;;11.36;100.00;101425.72;5098352;28;20047;-67
2024/03/18 00:09:17;;;;;;;8.18;4.10;;;;;;;11.38;100.00;101429.03;5075734;28;20067;-68
2024/03/18 00:12:04;;;;;;;7.15;4.05;;;;;;;11.36;100.00;101416.72;5060821;28;20036;-67
2024/03/18 00:14:51;;;;;;;7.82;3.70;;;;;;;11.36;100.00;101424.91;5093222;28;20040;-67
2024/03/18 00:17:38;;;;;;;6.68;3.90;;;;;;;11.37;100.00;101421.09;5078423;28;20083;-67
2024/03/18 00:20:25;;;;;;;6.93;4.03;;;;;;;11.36;100.00;101425.72;5092251;28;20514;-67
2024/03/18 00:23:12;;;;;;;7.47;4.05;;;;;;;11.37;100.00;101429.25;5080774;28;20083;-68
2024/03/18 00:26:00;;;;;;;7.72;4.30;;;;;;;11.35;100.00;101424.06;5076276;28;20240;-68
2024/03/18 00:28:48;;;;;;;6.03;3.80;;;;;;;11.35;100.00;101424.06;5065200;28;20048;-68
2024/03/18 00:31:35;;;;;;;7.70;4.30;;;;;;;11.35;100.00;101431.41;5084923;28;20519;-67
2024/03/18 00:34:22;;;;;;;6.85;4.00;;;;;;;11.32;100.00;101427.31;5104070;27;20127;-68
2024/03/18 00:37:09;;;;;;;6.88;3.80;;;;;;;11.35;100.00;101426.78;5119976;27;20138;-67
2024/03/18 00:39:56;;;;;;;6.47;4.03;;;;;;;11.36;100.00;101431.19;5101850;27;20039;-68
2024/03/18 00:42:44;;;;;;;7.55;4.20;;;;;;;11.39;100.00;101427.09;5079716;28;20131;-68
2024/03/18 00:45:31;;;;;;;7.55;4.40;;;;;;;11.38;100.00;101423.56;5075082;28;20075;-68
2024/03/18 00:48:18;;;;;;;5.82;4.00;;;;;;;11.38;100.00;101423.56;5100262;28;20043;-68
2024/03/18 00:51:05;;;;;;;8.35;4.65;;;;;;;11.38;100.00;101423.56;5070119;28;20096;-68
2024/03/18 00:53:52;;;;;;;6.95;4.20;;;;;;;11.39;100.00;101419.75;5070392;28;20074;-68
2024/03/18 00:56:39;;;;;;;10.32;5.13;;;;;;;11.39;100.00;101417.00;5101300;27;20047;-68
2024/03/18 00:59:26;;;;;;;7.50;4.50;;;;;;;11.40;100.00;101415.09;5119984;27;20039;-67
2024/03/18 01:02:13;;;;;;;7.63;4.60;;;;;;;11.41;100.00;101412.13;5106356;28;20094;-68
2024/03/18 01:05:00;;;;;;;7.38;4.30;;;;;;;11.41;100.00;101416.75;5084852;28;20527;-68
2024/03/18 01:07:47;;;;;;;7.97;4.45;;;;;;;11.41;100.00;101406.66;5099022;28;20048;-67
2024/03/18 01:10:34;;;;;;;7.43;4.53;;;;;;;11.41;100.00;101406.66;5084359;28;20066;-68
2024/03/18 01:13:22;;;;;;;6.32;4.50;;;;;;;11.41;100.00;101409.41;5081591;28;20119;-68
2024/03/18 01:16:09;;;;;;;7.80;4.45;;;;;;;11.41;100.00;101398.47;5085485;27;20047;-67
2024/03/18 01:18:57;;;;;;;7.80;5.05;;;;;;;11.43;100.00;101404.50;5091108;27;20081;-68
2024/03/18 01:21:44;;;;;;;9.15;5.28;;;;;;;11.42;100.00;101402.84;5099434;28;20047;-67
2024/03/18 01:24:32;;;;;;;8.50;5.40;;;;;;;11.42;100.00;101402.03;5097758;28;20082;-68
2024/03/18 01:27:19;;;;;;;8.57;5.50;;;;;;;11.42;100.00;101405.56;5104871;27;20054;-68
2024/03/18 01:30:11;;;;;;;9.95;5.82;;;;;;;11.43;100.00;101400.97;5084618;27;20126;-68
2024/03/18 01:32:58;;;;;;;12.25;6.22;;;;;;;11.43;100.00;101393.59;5096785;28;20071;-68
2024/03/18 01:35:46;;;;;;;10.18;6.68;;;;;;;11.43;100.00;101392.78;5084180;28;20054;-68
2024/03/18 01:38:37;;;;;;;9.07;6.30;;;;;;;11.42;100.00;101397.38;5079052;28;20044;-68
2024/03/18 01:41:24;;;;;;;10.55;6.22;;;;;;;11.43;100.00;101390.03;5096502;28;20055;-67
2024/03/18 01:44:11;;;;;;;8.65;6.22;;;;;;;11.43;100.00;101393.59;5083286;28;20051;-68
2024/03/18 01:46:58;;;;;;;10.30;7.20;;;;;;;11.43;100.00;101381.84;5083859;28;20120;-68
2024/03/18 01:49:45;;;;;;;10.13;7.57;;;;;;;11.43;100.00;101396.31;5097397;28;20040;-68
2024/03/18 01:52:32;;;;;;;9.95;6.85;;;;;;;11.43;100.00;101392.78;5073758;28;20385;-68
2024/03/18 01:55:19;;;;;;;10.18;7.00;;;;;;;11.43;100.00;101393.59;5084310;28;20112;-68
2024/03/18 01:58:07;;;;;;;10.32;6.47;;;;;;;11.42;100.00;101389.19;5083545;28;20056;-67
2024/03/18 02:00:54;;;;;;;10.20;7.38;;;;;;;11.41;100.00;101381.28;5078271;28;20086;-68
2024/03/18 02:03:41;;;;;;;10.88;7.25;;;;;;;11.41;100.00;101382.09;5062244;28;20074;-68
2024/03/18 02:06:28;;;;;;;11.90;7.32;;;;;;;11.41;100.00;101387.56;5049692;28;20500;-68
2024/03/18 02:09:18;;;;;;;12.18;7.28;;;;;;;11.40;100.00;101377.75;5087384;27;20039;-67
2024/03/18 02:12:06;;;;;;;11.57;7.15;;;;;;;11.40;100.00;101369.56;5111779;27;20058;-68
2024/03/18 02:14:54;;;;;;;10.23;7.25;;;;;;;11.42;100.00;101363.81;5096962;28;20496;-67
2024/03/18 02:17:42;;;;;;;10.00;7.40;;;;;;;11.42;100.00;101367.38;5097410;28;20047;-68
2024/03/18 02:20:29;;;;;;;10.15;7.20;;;;;;;11.41;100.00;101368.47;5101180;28;20055;-68
2024/03/18 02:23:16;;;;;;;10.40;7.38;;;;;;;11.40;100.00;101372.28;5068173;28;20083;-68
2024/03/18 02:26:03;;;;;;;10.57;7.55;;;;;;;11.41;100.00;101363.00;5076748;28;20074;-67
2024/03/18 02:28:51;;;;;;;10.00;7.60;;;;;;;11.41;100.00;101357.56;5077152;28;20079;-68
2024/03/18 02:31:38;;;;;;;10.82;7.75;;;;;;;11.41;100.00;101360.28;5094593;28;20108;-68
2024/03/18 02:34:25;;;;;;;11.45;7.68;;;;;;;11.42;100.00;101352.91;5062004;28;20043;-68
2024/03/18 02:37:12;;;;;;;11.80;7.88;;;;;;;11.41;100.00;101352.09;5094923;28;20452;-67
2024/03/18 02:40:00;;;;;;;12.32;8.18;;;;;;;11.41;100.00;101343.09;5082610;28;20085;-68
2024/03/18 02:42:48;;;;;;;11.95;8.60;;;;;;;11.40;100.00;101346.88;5097585;28;20079;-68
2024/03/18 02:45:35;;;;;;;13.48;8.95;;;;;;;11.39;100.00;101342.53;5095667;28;20047;-67
2024/03/18 02:48:24;;;;;;;14.02;9.63;;;;;;;11.36;100.00;101338.41;5083722;27;20086;-68
2024/03/18 02:51:11;;;;;;;13.00;9.13;;;;;;;11.35;100.00;101336.75;5088810;27;20047;-67
2024/03/18 02:53:58;;;;;;;13.27;9.32;;;;;;;11.35;100.00;101336.75;5116192;27;20053;-68
2024/03/18 02:56:45;;;;;;;12.77;9.18;;;;;;;11.34;100.00;101329.66;5061706;28;20040;-66
2024/03/18 02:59:32;;;;;;;12.95;9.38;;;;;;;11.35;100.00;101325.84;5090361;28;20083;-67
2024/03/18 03:02:19;;;;;;;15.13;10.60;;;;;;;11.35;100.00;101328.56;5069556;28;20059;-68
2024/03/18 03:05:06;;;;;;;13.20;9.90;;;;;;;11.35;100.00;101325.03;5049578;28;20469;-68
2024/03/18 03:07:53;;;;;;;12.10;9.38;;;;;;;11.34;100.00;101326.94;5094933;28;20051;-67
2024/03/18 03:10:40;;;;;;;14.50;10.40;;;;;;;11.35;100.00;101319.56;5096458;28;20408;-68
2024/03/18 03:13:27;;;;;;;15.50;10.07;;;;;;;11.34;100.00;101318.75;5095559;28;20381;-68
2024/03/18 03:16:15;;;;;;;13.95;10.15;;;;;;;11.35;100.00;101319.56;5079503;28;20122;-69
2024/03/18 03:19:02;;;;;;;13.70;9.90;;;;;;;11.34;100.00;101309.75;5081967;28;20035;-68
2024/03/18 03:21:49;;;;;;;11.85;9.13;;;;;;;11.35;100.00;101314.94;5081653;28;20047;-68
2024/03/18 03:24:36;;;;;;;13.13;9.52;;;;;;;11.35;100.00;101306.75;5081557;28;20561;-68
2024/03/18 03:27:23;;;;;;;16.00;10.50;;;;;;;11.36;100.00;101310.31;5081183;28;20040;-68
2024/03/18 03:30:10;;;;;;;13.05;9.70;;;;;;;11.34;100.00;101310.56;5083561;28;20047;-69
2024/03/18 03:32:57;;;;;;;12.48;9.73;;;;;;;11.33;100.00;101314.38;5082601;28;20091;-68
2024/03/18 03:35:45;;;;;;;13.85;9.57;;;;;;;11.33;100.00;101314.38;5082645;28;20067;-68
2024/03/18 03:38:32;;;;;;;13.95;10.40;;;;;;;11.33;100.00;101314.38;5082864;28;20448;-68
2024/03/18 03:41:19;;;;;;;14.27;10.20;;;;;;;11.33;100.00;101317.13;5058749;28;20512;-68
2024/03/18 03:44:06;;;;;;;12.60;9.90;;;;;;;11.34;100.00;101315.22;5077975;28;20102;-67
2024/03/18 03:46:55;;;;;;;15.15;10.23;;;;;;;11.33;100.00;101311.66;5079009;28;20048;-67
2024/03/18 03:49:42;;;;;;;12.88;9.18;;;;;;;11.34;100.00;101313.28;5086008;28;20043;-68
2024/03/18 03:52:29;;;;;;;14.18;9.65;;;;;;;11.35;100.00;101314.94;5091866;28;20055;-68
2024/03/18 03:55:16;;;;;;;12.00;9.38;;;;;;;11.34;100.00;101318.75;5065067;28;20411;-68
2024/03/18 03:58:04;;;;;;;12.55;9.60;;;;;;;11.33;100.00;101317.13;5077864;28;20059;-67
2024/03/18 04:00:52;;;;;;;11.85;8.95;;;;;;;11.34;100.00;101317.94;5064772;28;20043;-67
2024/03/18 04:03:39;;;;;;;12.23;8.85;;;;;;;11.34;100.00;101318.75;5086104;28;20136;-68
2024/03/18 04:06:26;;;;;;;14.65;9.70;;;;;;;11.35;100.00;101314.94;5086963;28;20046;-68
2024/03/18 04:09:15;;;;;;;12.38;9.32;;;;;;;11.33;100.00;101322.56;5064174;28;20397;-68
2024/03/18 04:12:02;;;;;;;12.18;9.10;;;;;;;11.30;100.00;101318.47;5039455;28;20492;-68
2024/03/18 04:14:49;;;;;;;12.15;9.35;;;;;;;11.29;100.00;101310.53;5078416;28;20055;-67
2024/03/18 04:17:36;;;;;;;12.60;9.20;;;;;;;11.28;100.00;101323.34;5079528;28;20450;-67
2024/03/18 04:20:23;;;;;;;11.60;8.77;;;;;;;11.27;100.00;101329.06;5096709;28;20441;-68
2024/03/18 04:23:10;;;;;;;15.35;9.23;;;;;;;11.29;100.00;101329.63;5086327;28;20051;-69
2024/03/18 04:25:57;;;;;;;13.18;9.10;;;;;;;11.29;100.00;101326.91;5086123;28;20079;-68
2024/03/18 04:28:44;;;;;;;13.52;9.13;;;;;;;11.31;100.00;101327.47;5099164;28;20047;-67
2024/03/18 04:31:32;;;;;;;11.95;8.45;;;;;;;11.30;100.00;101331.25;5100733;27;20119;-67
2024/03/18 04:34:19;;;;;;;14.13;9.00;;;;;;;11.29;100.00;101332.34;5091777;27;20086;-68
2024/03/18 04:37:07;;;;;;;12.48;8.38;;;;;;;11.29;100.00;101329.63;5086783;27;20055;-68
2024/03/18 04:39:54;;;;;;;13.68;8.73;;;;;;;11.32;100.00;101325.56;5086494;28;20047;-67
2024/03/18 04:42:42;;;;;;;11.52;8.48;;;;;;;11.32;100.00;101331.81;5080427;28;20071;-67
2024/03/18 04:45:29;;;;;;;13.05;8.65;;;;;;;11.31;100.00;101335.66;5065629;28;20523;-67
2024/03/18 04:48:16;;;;;;;11.52;8.48;;;;;;;11.31;100.00;101332.91;5072299;28;20093;-68
2024/03/18 04:51:03;;;;;;;13.15;9.25;;;;;;;11.32;100.00;101334.56;5099331;27;20043;-68
2024/03/18 04:53:50;;;;;;;13.70;9.15;;;;;;;11.32;100.00;101340.00;5105176;27;20062;-67
2024/03/18 04:56:37;;;;;;;12.48;9.00;;;;;;;11.32;100.00;101337.28;5092290;27;20444;-68
2024/03/18 04:59:25;;;;;;;13.32;9.63;;;;;;;11.32;100.00;101342.75;5088079;28;20059;-68
2024/03/18 05:02:11;;;;;;;12.35;9.57;;;;;;;11.32;100.00;101342.75;5075936;28;20412;-68
2024/03/18 05:04:59;;;;;;;12.93;9.60;;;;;;;11.31;100.00;101346.56;5065846;28;20068;-68
2024/03/18 05:07:46;;;;;;;13.48;9.95;;;;;;;11.33;100.00;101349.00;5065706;28;20057;-68
2024/03/18 05:10:33;;;;;;;12.10;9.20;;;;;;;11.32;100.00;101353.66;5062488;28;20051;-68
2024/03/18 05:13:20;;;;;;;12.38;9.95;;;;;;;11.32;100.00;101342.75;5076937;28;20043;-68
2024/03/18 05:16:07;;;;;;;13.30;9.98;;;;;;;11.33;100.00;101343.56;5091232;28;20518;-68
2024/03/18 05:18:54;;;;;;;12.73;10.20;;;;;;;11.32;100.00;101348.19;5095621;28;20049;-68
2024/03/18 05:21:41;;;;;;;13.52;10.35;;;;;;;11.31;100.00;101338.38;5065202;28;20877;-68
2024/03/18 05:24:28;;;;;;;12.38;9.95;;;;;;;11.30;100.00;101348.47;5082336;28;20044;-67
2024/03/18 05:27:17;;;;;;;13.15;9.52;;;;;;;11.31;100.00;101343.84;5069553;28;20126;-67
2024/03/18 05:30:05;;;;;;;12.88;10.00;;;;;;;11.32;100.00;101348.19;5084605;28;20048;-68
2024/03/18 05:32:52;;;;;;;12.23;9.98;;;;;;;11.32;100.00;101341.91;5080018;28;20035;-67
2024/03/18 05:35:39;;;;;;;14.18;9.88;;;;;;;11.33;100.00;101352.59;5064845;28;20044;-68
2024/03/18 05:38:26;;;;;;;11.90;9.68;;;;;;;11.32;100.00;101348.19;5078400;28;20173;-68
2024/03/18 05:41:13;;;;;;;13.43;10.25;;;;;;;11.32;100.00;101353.66;5085345;28;20047;-68
2024/03/18 05:44:00;;;;;;;13.30;10.15;;;;;;;11.32;100.00;101352.84;5079106;28;20212;-68
2024/03/18 05:46:47;;;;;;;12.48;9.45;;;;;;;11.31;100.00;101346.56;5097185;28;20518;-68
2024/03/18 05:49:34;;;;;;;12.68;10.25;;;;;;;11.31;100.00;101357.47;5084423;28;20044;-68
2024/03/18 05:52:23;;;;;;;14.90;9.98;;;;;;;11.32;100.00;101352.84;5085345;28;20446;-68
2024/03/18 05:55:10;;;;;;;12.95;9.82;;;;;;;11.31;100.00;101346.56;5072078;28;20094;-67
2024/03/18 05:58:02;;;;;;;13.30;9.80;;;;;;;11.32;100.00;101350.09;5089221;28;20066;-68
2024/03/18 06:00:49;;;;;;;13.90;10.52;;;;;;;11.32;100.00;101352.84;5086475;28;20051;-68
2024/03/18 06:03:38;;;;;;;13.20;9.55;;;;;;;11.32;100.00;101348.19;5082854;28;20074;-68
2024/03/18 06:06:25;;;;;;;16.33;10.77;;;;;;;11.31;100.00;101352.03;5068256;28;20048;-66
2024/03/18 06:09:12;;;;;;;13.85;10.57;;;;;;;11.29;100.00;101343.25;5064103;28;20040;-68
2024/03/18 06:11:59;;;;;;;13.27;10.40;;;;;;;11.28;100.00;101352.50;5084333;28;20048;-69
2024/03/18 06:14:46;;;;;;;15.30;10.75;;;;;;;11.28;100.00;101352.50;5084085;28;20122;-69
2024/03/18 06:17:34;;;;;;;16.77;11.60;;;;;;;11.28;100.00;101352.50;5050758;28;20047;-68
2024/03/18 06:20:21;;;;;;;14.40;11.32;;;;;;;11.28;100.00;101363.44;5093010;28;20415;-69
2024/03/18 06:23:10;;;;;;;15.60;11.18;;;;;;;11.27;100.00;101354.44;5068620;28;20047;-69
2024/03/18 06:26:00;;;;;;;14.88;10.52;;;;;;;11.27;100.00;101357.16;5093669;28;20063;-68
2024/03/18 06:28:47;;;;;;;15.45;10.75;;;;;;;11.28;100.00;101357.97;5050688;28;20040;-70
2024/03/18 06:31:35;;;;;;;13.40;10.32;;;;;;;11.28;100.00;101357.97;5064052;28;20052;-70
2024/03/18 06:34:22;;;;;;;16.60;11.70;;;;;;;11.32;100.00;101364.56;5090775;28;20078;-69
2024/03/18 06:37:11;;;;;;;14.68;11.48;;;;;;;11.33;100.00;101360.78;5077103;27;20210;-68
2024/03/18 06:40:00;;;;;;;16.17;10.57;;;;;;;11.35;100.00;101360.50;4395758;28;10000610;-69
2024/03/18 06:42:51;;;;;;;13.88;9.98;;;;;;;11.35;100.00;101355.03;5069633;28;20082;-69
2024/03/18 06:45:41;;;;;;;12.18;9.48;;;;;;;11.35;100.00;101364.03;5093226;28;20082;-69
2024/03/18 06:48:28;;;;;;;15.60;10.35;;;;;;;11.34;100.00;101373.31;5093693;28;20055;-69
2024/03/18 06:51:16;;;;;;;13.15;9.60;;;;;;;11.34;100.00;101362.41;5032643;28;20044;-69
2024/03/18 06:54:03;;;;;;;12.05;9.50;;;;;;;11.35;100.00;101368.66;5072060;28;20528;-68
2024/03/18 06:56:50;;;;;;;14.18;10.85;;;;;;;11.35;100.00;101380.41;5076950;28;20493;-68
2024/03/18 06:59:37;;;;;;;15.02;10.43;;;;;;;11.34;100.00;101376.03;5077613;28;20055;-68
2024/03/18 07:02:24;;;;;;;13.18;9.80;;;;;;;11.35;100.00;101382.31;5077446;28;20059;-68
2024/03/18 07:05:12;;;;;;;17.10;10.45;;;;;;;11.34;100.00;101378.78;5077445;28;20124;-68
2024/03/18 07:07:59;;;;;;;15.52;10.90;;;;;;;11.35;100.00;101371.41;5092866;27;20490;-69
2024/03/18 07:10:46;;;;;;;15.35;11.43;;;;;;;11.36;100.00;101376.59;5113216;27;20077;-68
2024/03/18 07:13:34;;;;;;;14.05;10.02;;;;;;;11.35;100.00;101368.66;5073508;28;20512;-68
2024/03/18 07:16:21;;;;;;;17.27;11.07;;;;;;;11.35;100.00;101361.31;5047034;28;20109;-69
2024/03/18 07:19:08;;;;;;;14.63;10.40;;;;;;;11.36;100.00;101364.88;5059841;28;20495;-68
2024/03/18 07:21:56;;;;;;;14.13;10.13;;;;;;;11.37;100.00;101361.06;5065014;28;20047;-71
2024/03/18 07:24:43;;;;;;;14.77;9.93;;;;;;;11.37;100.00;101363.78;5090318;28;20140;-68
2024/03/18 07:27:31;;;;;;;16.95;10.38;;;;;;;11.38;100.00;101366.25;5077530;28;20345;-69
2024/03/18 07:30:18;;;;;;;14.80;10.35;;;;;;;11.39;100.00;101365.16;5112081;28;20051;-69
2024/03/18 07:33:06;;;;;;;13.98;10.05;;;;;;;11.40;100.00;101371.44;5097175;28;20047;-68
2024/03/18 07:35:53;;;;;;;14.93;10.73;;;;;;;11.40;100.00;101366.84;5073105;28;20339;-70
2024/03/18 07:38:40;;;;;;;16.42;11.50;;;;;;;11.39;100.00;101359.72;5086152;27;20070;-69
2024/03/18 07:41:27;;;;;;;15.07;11.45;;;;;;;11.39;100.00;101364.34;5066141;28;20473;-68
2024/03/18 07:44:14;;;;;;;17.45;12.18;;;;;;;11.38;100.00;101363.53;5068001;28;20074;-69
2024/03/18 07:47:01;;;;;;;18.15;13.85;;;;;;;11.38;100.00;101369.00;5069136;28;20079;-69
2024/03/18 07:49:49;;;;;;;18.95;13.68;;;;;;;11.38;100.00;101376.34;5067247;27;20043;-70
2024/03/18 07:52:36;;;;;;;23.48;14.43;;;;;;;11.38;100.00;101379.09;5092601;28;20059;-69
2024/03/18 07:55:23;;;;;;;22.77;16.02;;;;;;;11.34;100.00;101373.31;5066894;28;20063;-69
2024/03/18 07:58:10;;;;;;;26.70;16.67;;;;;;;11.35;100.00;101390.50;5083242;28;20063;-67
2024/03/18 08:00:57;;;;;;;23.73;15.45;;;;;;;11.35;100.00;101385.84;5086602;28;20396;-68
2024/03/18 08:03:44;;;;;;;24.45;16.52;;;;;;;11.37;100.00;101382.88;5069702;28;20048;-69
2024/03/18 08:06:31;;;;;;;23.10;17.08;;;;;;;11.36;100.00;101392.16;5065997;28;20044;-69
2024/03/18 08:09:19;;;;;;;27.52;17.58;;;;;;;11.35;100.00;101396.78;5084238;28;20482;-69
2024/03/18 08:12:06;;;;;;;26.73;18.35;;;;;;;11.32;100.00;101402.75;5085455;28;20074;-68
2024/03/18 08:14:53;;;;;;;27.20;18.02;;;;;;;11.31;100.00;101406.56;5080403;27;20052;-68
2024/03/18 08:17:41;;;;;;;25.27;17.33;;;;;;;11.30;100.00;101404.91;5079519;27;20035;-68
2024/03/18 08:20:28;;;;;;;24.42;17.55;;;;;;;11.32;100.00;101408.22;5076818;28;20443;-66
2024/03/18 08:23:15;;;;;;;25.88;19.05;;;;;;;11.31;100.00;101412.03;5099891;28;20039;-68
2024/03/18 08:26:02;;;;;;;30.92;19.13;;;;;;;11.31;100.00;101414.75;5072078;28;20089;-67
2024/03/18 08:28:49;;;;;;;28.65;18.95;;;;;;;11.32;100.00;101418.31;5099164;28;20411;-67
2024/03/18 08:31:36;;;;;;;27.92;18.95;;;;;;;11.31;100.00;101420.22;5085890;28;20063;-68
2024/03/18 08:34:23;;;;;;;28.73;18.63;;;;;;;11.32;100.00;101423.75;5058927;28;20042;-68
2024/03/18 08:37:10;;;;;;;34.67;20.27;;;;;;;11.30;100.00;101415.81;5088353;28;20510;-69
2024/03/18 08:39:58;;;;;;;26.38;18.95;;;;;;;11.30;100.00;101418.56;5067576;28;20114;-67
2024/03/18 08:42:45;;;;;;;30.10;18.92;;;;;;;11.32;100.00;101424.59;5084545;28;20483;-68
2024/03/18 08:45:32;;;;;;;30.58;20.38;;;;;;;11.30;100.00;101432.19;5085814;28;20075;-68
2024/03/18 08:48:19;;;;;;;26.42;17.95;;;;;;;11.30;100.00;101427.59;5084886;28;20043;-67
2024/03/18 08:51:06;;;;;;;29.58;18.65;;;;;;;11.32;100.00;101431.94;5098723;28;20059;-68
2024/03/18 08:53:53;;;;;;;25.10;17.75;;;;;;;11.33;100.00;101430.84;5071513;28;20043;-69
2024/03/18 08:56:41;;;;;;;28.48;19.88;;;;;;;11.34;100.00;101425.16;5094922;28;20468;-68
2024/03/18 08:59:29;;;;;;;23.30;17.77;;;;;;;11.35;100.00;101426.78;4715139;28;10000183;-68
2024/03/18 09:02:16;;;;;;;28.05;18.90;;;;;;;11.38;100.00;101426.28;5076478;28;20043;-67
2024/03/18 09:05:03;;;;;;;26.60;17.80;;;;;;;11.43;100.00;101431.78;5063389;28;20134;-68
2024/03/18 09:07:50;;;;;;;25.63;18.40;;;;;;;11.48;100.00;101433.75;5074731;28;20048;-68
2024/03/18 09:10:38;;;;;;;30.42;19.83;;;;;;;11.51;100.00;101435.94;5080844;28;20495;-68
2024/03/18 09:13:25;;;;;;;28.52;18.13;;;;;;;11.50;100.00;101442.50;5054779;28;20047;-68
2024/03/18 09:16:12;;;;;;;27.90;18.27;;;;;;;11.45;100.00;101445.19;5066717;28;20036;-68
2024/03/18 09:18:59;;;;;;;28.50;19.45;;;;;;;11.41;100.00;101442.13;5097983;28;20043;-68
2024/03/18 09:21:47;;;;;;;26.92;18.73;;;;;;;11.38;100.00;101442.66;5085458;28;20124;-68
2024/03/18 09:24:35;;;;;;;24.98;17.35;;;;;;;11.36;100.00;101435.81;5084522;28;20079;-68
2024/03/18 09:27:22;;;;;;;25.80;15.82;;;;;;;11.38;100.00;101433.66;5098292;28;20051;-68
2024/03/18 09:30:09;;;;;;;27.48;15.77;;;;;;;11.36;100.00;101428.44;5085479;28;20059;-68
2024/03/18 09:32:56;;;;;;;24.50;16.60;;;;;;;11.36;100.00;101439.34;5069799;28;20047;-68
2024/03/18 09:35:43;;;;;;;26.13;16.20;;;;;;;11.40;100.00;101440.50;5084084;28;20089;-68
2024/03/18 09:38:31;;;;;;;22.98;15.85;;;;;;;11.41;100.00;101444.88;5084913;28;20044;-68
2024/03/18 09:41:21;;;;;;;24.92;16.63;;;;;;;11.40;100.00;101445.09;5084655;28;20397;-68
2024/03/18 09:44:12;;;;;;;32.42;18.05;;;;;;;11.40;100.00;101453.28;5101364;27;20184;-68
2024/03/18 09:46:59;;;;;;;28.70;17.48;;;;;;;11.39;100.00;101449.75;5117777;27;20051;-68
2024/03/18 09:49:46;;;;;;;26.45;15.57;;;;;;;11.40;100.00;101451.41;5051538;28;20040;-68
2024/03/18 09:52:38;;;;;;;23.67;15.18;;;;;;;11.44;100.00;101454.44;5077796;28;20055;-67
2024/03/18 09:55:27;;;;;;;25.15;14.73;;;;;;;11.47;100.00;101453.91;5064386;28;20080;-68
2024/03/18 09:58:15;;;;;;;22.60;14.50;;;;;;;11.48;100.00;101456.41;5064438;28;20060;-68
2024/03/18 10:01:02;;;;;;;24.92;15.73;;;;;;;11.47;100.00;101448.44;5050619;28;20132;-68
2024/03/18 10:03:50;;;;;;;26.33;14.85;;;;;;;11.49;100.00;101454.47;5064478;28;20052;-69
2024/03/18 10:06:39;;;;;;;23.98;15.55;;;;;;;11.52;100.00;101456.72;5077316;28;20110;-68
2024/03/18 10:09:29;;;;;;;24.30;15.15;;;;;;;11.55;100.00;101455.38;5076615;28;20044;-68
2024/03/18 10:12:16;;;;;;;23.95;15.98;;;;;;;11.56;100.00;101462.47;5064782;28;20086;-68
2024/03/18 10:15:04;;;;;;;27.52;17.42;;;;;;;11.57;100.00;101456.75;5050655;28;20071;-69
2024/03/18 10:17:54;;;;;;;28.80;16.85;;;;;;;11.57;100.00;101458.63;5057952;28;20415;-69
2024/03/18 10:20:41;;;;;;;26.17;15.25;;;;;;;11.58;100.00;101454.84;5097443;28;20043;-69
2024/03/18 10:23:29;;;;;;;23.80;15.73;;;;;;;11.60;100.00;101464.41;5084352;28;20044;-69
2024/03/18 10:26:17;;;;;;;24.73;17.38;;;;;;;11.58;100.00;101458.41;5084488;28;20512;-68
2024/03/18 10:29:04;;;;;;;22.63;16.45;;;;;;;11.56;100.00;101460.56;5070691;28;20062;-68
2024/03/18 10:31:51;;;;;;;27.27;17.90;;;;;;;11.58;100.00;101466.59;5082026;28;20393;-68
2024/03/18 10:34:42;;;;;;;25.02;16.45;;;;;;;11.62;100.00;101462.25;5083255;28;20052;-68
2024/03/18 10:37:29;;;;;;;26.40;16.38;;;;;;;11.62;100.00;101464.16;5083469;28;20051;-67
2024/03/18 10:40:42;;;;;;;21.98;15.25;;;;;;;11.69;100.00;101467.50;5082548;28;20048;-68
2024/03/18 10:43:32;;;;;;;24.52;15.38;;;;;;;11.77;100.00;101469.75;5095966;28;20106;-66
2024/03/18 10:46:19;;;;;;;28.88;15.65;;;;;;;11.77;100.00;101471.66;5079017;28;20454;-67
2024/03/18 10:49:09;;;;;;;26.92;15.40;;;;;;;11.78;100.00;101465.09;5081210;28;20043;-72
2024/03/18 10:51:56;;;;;;;30.00;15.95;;;;;;;11.85;100.00;101473.91;5067166;28;20075;-72
2024/03/18 10:54:45;;;;;;;22.77;13.65;;;;;;;11.86;100.00;101473.66;5070211;28;20043;-72
2024/03/18 10:57:32;;;;;;;27.83;15.27;;;;;;;11.90;100.00;101473.97;5054976;28;20062;-72
2024/03/18 11:00:20;;;;;;;24.33;13.30;;;;;;;11.98;100.00;101487.16;5084201;28;20040;-72
2024/03/18 11:03:19;;;;;;;26.92;13.38;;;;;;;11.99;100.00;101479.78;5065291;28;20091;-72
2024/03/18 11:06:14;;;;;;;23.50;11.82;;;;;;;12.03;100.00;101486.38;5071800;28;20101;-72
2024/03/18 11:09:02;;;;;;;21.00;11.33;;;;;;;12.13;100.00;101489.19;5063640;28;20052;-71
2024/03/18 11:11:50;;;;;;;31.40;12.07;;;;;;;12.20;100.00;101491.69;5050518;28;20051;-73
2024/03/18 11:14:37;;;;;;;28.20;10.88;;;;;;;12.20;100.00;101495.25;5062735;28;20143;-73
2024/03/18 11:17:29;;;;;;;30.02;9.77;;;;;;;12.20;100.00;101489.78;5073709;28;20109;-72
2024/03/18 11:20:19;;;;;;;24.77;9.38;;;;;;;12.19;100.00;101496.31;5062097;28;20059;-71
2024/03/18 11:23:17;;;;;;;26.13;9.85;;;;;;;12.18;100.00;101494.69;5063430;28;20058;-73
2024/03/18 11:26:07;;;;;;;26.05;10.85;;;;;;;12.20;100.00;101489.78;5049175;28;20040;-72
2024/03/18 11:29:08;;;;;;;26.23;10.85;;;;;;;12.22;100.00;101493.09;4349052;28;10000807;-72
2024/03/18 11:31:55;;;;;;;26.08;10.18;;;;;;;12.26;100.00;101499.66;5059574;28;20823;-72
2024/03/18 11:34:43;;;;;;;24.02;11.55;;;;;;;12.33;100.00;101499.44;5047487;28;20048;-73
2024/03/18 11:37:32;;;;;;;24.83;9.75;;;;;;;12.37;100.00;101497.81;5058686;28;20521;-74
2024/03/18 11:40:23;;;;;;;26.35;9.80;;;;;;;12.43;100.00;101501.41;5074688;28;20047;-74
2024/03/18 11:43:10;;;;;;;25.38;9.48;;;;;;;12.44;100.00;101516.72;5065483;28;20047;-72
2024/03/18 11:46:00;;;;;;;22.02;8.80;;;;;;;12.45;100.00;101513.72;5079777;28;20177;-74
2024/03/18 11:48:47;;;;;;;25.02;8.98;;;;;;;12.46;100.00;101520.00;5073675;28;20052;-74
2024/03/18 11:51:34;;;;;;;21.27;9.05;;;;;;;12.49;100.00;101525.78;5084597;28;20044;-74
2024/03/18 11:54:21;;;;;;;22.25;9.02;;;;;;;12.51;100.00;101511.84;5091230;28;20557;-73
2024/03/18 11:57:12;;;;;;;20.75;7.30;;;;;;;12.54;100.00;101508.59;5098630;28;20085;-73
2024/03/18 11:59:59;;;;;;;26.73;9.65;;;;;;;12.60;100.00;101504.78;5078817;28;20063;-73
2024/03/18 12:02:46;;;;;;;25.23;9.23;;;;;;;12.63;100.00;101512.47;5095073;28;20051;-73
2024/03/18 12:05:38;;;;;;;20.13;8.32;;;;;;;12.64;100.00;101505.91;5091210;28;20048;-73
2024/03/18 12:08:26;;;;;;;21.65;8.65;;;;;;;12.64;100.00;101510.56;5059633;28;20071;-73
2024/03/18 12:11:13;;;;;;;18.55;6.97;;;;;;;12.62;100.00;101505.34;5076100;28;20047;-74
2024/03/18 12:14:00;;;;;;;22.95;6.85;;;;;;;12.62;100.00;101502.59;5046299;28;20044;-73
2024/03/18 12:16:55;;;;;;;19.77;7.63;;;;;;;12.62;100.00;101507.25;5043384;28;20380;-71
2024/03/18 12:19:52;;;;;;;19.55;7.47;;;;;;;12.67;100.00;101505.38;5078767;28;20040;-73
2024/03/18 12:22:39;;;;;;;18.45;7.30;;;;;;;12.76;100.00;101500.22;5096167;28;20039;-73
2024/03/18 12:28:32;;;;;;;19.50;7.45;;;;;;;12.87;100.00;101488.25;5052102;28;20561;-74
2024/03/18 12:31:21;;;;;;;21.73;8.25;;;;;;;12.91;100.00;101485.78;5072353;28;20138;-75
2024/03/18 12:34:11;;;;;;;18.30;7.13;;;;;;;12.97;100.00;101490.22;5074871;28;20097;-75
2024/03/18 12:37:00;;;;;;;20.85;6.72;;;;;;;13.04;100.00;101490.78;5039493;28;20036;-73
2024/03/18 12:39:47;;;;;;;20.08;5.53;;;;;;;13.06;100.00;101493.22;5081202;28;20044;-73
2024/03/18 12:42:34;;;;;;;16.63;4.60;;;;;;;13.03;100.00;101496.50;5069851;27;20096;-74